createdAt,value
2023-10-29T00:04:34.157Z,3.80
2023-10-29T00:09:55.680Z,3.63
2023-10-29T00:15:16.477Z,3.55
2023-10-29T00:20:37.604Z,3.50
2023-10-29T00:25:58.397Z,3.88
2023-10-29T00:31:19.628Z,4.00
2023-10-29T00:36:40.742Z,3.78
2023-10-29T00:42:01.731Z,3.72
2023-10-29T00:47:23.175Z,3.72
2023-10-29T00:52:44.631Z,3.40
2023-10-29T00:58:05.857Z,3.80
2023-10-29T01:03:27.125Z,3.90
2023-10-29T01:08:49.193Z,3.55
2023-10-29T01:14:10.074Z,3.97
2023-10-29T01:19:31.062Z,3.25
2023-10-29T01:24:52.308Z,3.92
2023-10-29T01:30:13.689Z,4.20
2023-10-29T01:35:34.686Z,4.40
2023-10-29T01:40:55.671Z,4.30
2023-10-29T01:46:16.775Z,4.45
2023-10-29T01:51:37.944Z,4.13
2023-10-29T01:56:59.116Z,4.35
2023-10-29T02:02:19.867Z,4.25
2023-10-29T02:07:40.948Z,3.45
2023-10-29T02:13:02.010Z,3.85
2023-10-29T02:18:23.209Z,4.10
2023-10-29T02:23:44.214Z,3.67
2023-10-29T02:29:05.089Z,3.53
2023-10-29T02:34:26.156Z,3.70
2023-10-29T02:39:48.520Z,3.53
2023-10-29T02:45:09.678Z,3.05
2023-10-29T02:50:32.122Z,3.08
2023-10-29T02:55:53.114Z,3.45
2023-10-29T03:01:14.093Z,3.30
2023-10-29T03:06:35.009Z,3.30
2023-10-29T03:11:56.173Z,2.97
2023-10-29T03:17:17.052Z,2.58
2023-10-29T03:22:38.409Z,2.70
2023-10-29T03:27:59.313Z,2.42
2023-10-29T03:33:20.359Z,2.33
2023-10-29T03:38:41.308Z,2.50
2023-10-29T03:44:02.283Z,2.40
2023-10-29T03:49:23.405Z,1.83
2023-10-29T03:54:44.386Z,2.20
2023-10-29T04:00:06.283Z,2.10
2023-10-29T04:05:35.152Z,2.10
2023-10-29T04:10:55.904Z,2.33
2023-10-29T04:16:17.042Z,2.08
2023-10-29T04:21:37.873Z,1.88
2023-10-29T04:26:59.020Z,2.35
2023-10-29T04:32:20.120Z,1.77
2023-10-29T04:37:41.119Z,1.60
2023-10-29T04:43:02.114Z,1.67
2023-10-29T04:48:23.163Z,1.65
2023-10-29T04:53:44.205Z,1.60
2023-10-29T04:59:05.133Z,1.70
2023-10-29T05:04:26.326Z,1.38
2023-10-29T05:09:47.406Z,1.20
2023-10-29T05:15:09.259Z,1.30
2023-10-29T05:20:30.461Z,1.10
2023-10-29T05:25:51.386Z,1.35
2023-10-29T05:31:12.562Z,1.15
2023-10-29T05:36:33.610Z,1.27
2023-10-29T05:41:54.502Z,0.98
2023-10-29T05:47:15.265Z,1.00
2023-10-29T05:52:36.599Z,1.10
2023-10-29T05:57:57.634Z,1.10
2023-10-29T06:03:19.023Z,1.17
2023-10-29T06:08:40.187Z,0.98
2023-10-29T06:14:01.058Z,1.00
2023-10-29T09:45:19.099Z,0.70
2023-10-29T09:50:42.287Z,0.80
2023-10-29T09:56:06.610Z,0.80
2023-10-29T10:01:27.531Z,0.80
2023-10-29T10:06:50.179Z,0.88
2023-10-29T10:17:32.781Z,1.13
2023-10-29T10:23:01.349Z,1.10
2023-10-29T10:28:22.292Z,0.90
2023-10-29T10:33:43.595Z,1.00
2023-10-29T10:39:04.761Z,0.75
2023-10-29T10:44:28.481Z,0.93
2023-10-29T10:49:50.355Z,1.33
2023-10-29T10:55:26.361Z,1.00
2023-10-29T11:00:53.552Z,1.20
2023-10-29T11:06:14.795Z,0.90
2023-10-29T11:11:45.845Z,0.80
2023-10-29T11:17:06.810Z,1.10
2023-10-29T11:22:27.752Z,1.30
2023-10-29T11:27:48.901Z,1.20
2023-10-29T11:33:17.894Z,1.10
2023-10-29T11:38:38.751Z,1.30
2023-10-29T11:44:18.557Z,0.80
2023-10-29T11:49:45.671Z,1.85
2023-10-29T11:55:07.552Z,0.75
2023-10-29T12:00:41.503Z,1.00
2023-10-29T12:06:02.567Z,0.70
2023-10-29T12:11:26.822Z,0.60
2023-10-29T12:16:47.962Z,0.80
2023-10-29T12:22:21.624Z,1.00
2023-10-29T12:27:42.857Z,0.63
2023-10-29T12:33:26.466Z,0.68
2023-10-29T12:38:47.464Z,0.85
2023-10-29T12:44:17.897Z,0.95
2023-10-29T12:49:38.643Z,0.93
2023-10-29T12:54:59.810Z,0.82
2023-10-29T13:00:20.739Z,0.90
2023-10-29T13:05:41.927Z,0.95
2023-10-29T13:11:03.293Z,0.75
2023-10-29T13:16:24.479Z,1.00
2023-10-29T13:21:45.329Z,1.00
2023-10-29T13:27:06.285Z,1.05
2023-10-29T13:32:27.156Z,1.08
2023-10-29T13:37:48.111Z,1.55
2023-10-29T13:43:09.373Z,0.88
2023-10-29T13:48:30.902Z,1.00
2023-10-29T13:53:51.910Z,1.38
2023-10-29T13:59:13.416Z,1.23
2023-10-29T14:04:34.583Z,0.73
2023-10-29T14:09:55.627Z,1.25
2023-10-29T14:15:17.124Z,0.98
2023-10-29T14:20:37.978Z,1.10
2023-10-29T14:25:59.130Z,0.95
2023-10-29T14:31:20.459Z,0.98
2023-10-29T14:36:41.274Z,1.02
2023-10-29T14:42:02.794Z,1.88
2023-10-29T14:47:24.052Z,1.00
2023-10-29T14:52:45.341Z,1.00
2023-10-29T14:58:06.438Z,1.05
2023-10-29T15:03:27.337Z,1.13
2023-10-29T15:08:49.462Z,0.85
2023-10-29T15:14:10.270Z,1.10
2023-10-29T15:19:37.003Z,1.20
2023-10-29T15:24:58.487Z,1.05
2023-10-29T15:30:19.506Z,1.08
2023-10-29T15:35:40.433Z,0.80
2023-10-29T15:41:01.804Z,1.10
2023-10-29T15:46:22.695Z,1.20
2023-10-29T15:51:43.847Z,1.05
2023-10-29T15:57:05.249Z,1.10
2023-10-29T16:02:26.344Z,1.25
2023-10-29T16:07:47.569Z,1.38
2023-10-29T16:13:08.586Z,0.77
2023-10-29T16:18:30.228Z,0.88
2023-10-29T16:23:51.521Z,0.75
2023-10-29T16:29:12.286Z,1.05
2023-10-29T16:34:33.345Z,0.90
2023-10-29T16:39:54.301Z,1.10
2023-10-29T16:45:15.431Z,0.90
2023-10-29T16:50:52.520Z,1.00
2023-10-29T16:56:21.875Z,1.10
2023-10-29T17:01:42.848Z,1.00
2023-10-29T17:07:05.873Z,1.00
2023-10-29T17:12:28.848Z,1.08
2023-10-29T17:17:49.916Z,0.88
2023-10-29T17:23:10.769Z,1.00
2023-10-29T17:28:31.865Z,1.00
2023-10-29T17:33:53.085Z,1.00
2023-10-29T17:39:14.241Z,1.00
2023-10-29T17:44:35.360Z,1.30
2023-10-29T17:49:56.597Z,1.05
2023-10-29T17:55:17.695Z,0.88
2023-10-29T18:00:38.767Z,1.00
2023-10-29T18:05:59.888Z,1.27
2023-10-29T18:11:20.684Z,1.30
2023-10-29T18:16:41.748Z,1.30
2023-10-29T18:22:02.780Z,1.52
2023-10-29T18:27:24.072Z,1.50
2023-10-29T18:32:45.079Z,1.58
2023-10-29T18:38:08.187Z,1.40
2023-10-29T18:43:29.678Z,2.05
2023-10-29T18:48:50.932Z,1.98
2023-10-29T18:54:11.831Z,1.67
2023-10-29T18:59:32.622Z,1.75
2023-10-29T19:04:53.678Z,1.25
2023-10-29T19:10:14.812Z,1.63
2023-10-29T19:15:35.903Z,1.27
2023-10-29T19:20:56.892Z,1.30
2023-10-29T19:26:17.637Z,1.30
2023-10-29T19:31:38.717Z,1.30
2023-10-29T19:36:59.907Z,1.52
2023-10-29T19:42:21.215Z,0.88
2023-10-29T19:47:42.149Z,1.20
2023-10-29T19:53:03.249Z,0.90
2023-10-29T19:58:25.052Z,0.93
2023-10-29T20:03:46.844Z,1.00
2023-10-29T20:09:08.171Z,1.35
2023-10-29T20:14:29.061Z,1.08
2023-10-29T20:19:50.171Z,1.33
2023-10-29T20:25:11.154Z,1.45
2023-10-29T20:30:32.378Z,1.70
2023-10-29T20:35:53.266Z,2.00
2023-10-29T20:41:14.434Z,2.53
2023-10-29T20:46:35.364Z,2.15
2023-10-29T20:51:56.186Z,2.00
2023-10-29T20:57:17.555Z,1.92
2023-10-29T21:02:38.384Z,2.15
2023-10-29T21:07:59.504Z,1.60
2023-10-29T21:13:20.523Z,1.50
2023-10-29T21:18:41.610Z,1.55
2023-10-29T21:24:02.463Z,1.20
2023-10-29T21:29:24.042Z,1.20
2023-10-29T21:34:44.981Z,0.77
2023-10-29T21:40:06.638Z,1.20
2023-10-29T21:45:27.921Z,0.80
2023-10-29T21:50:58.902Z,1.17
2023-10-29T21:56:19.757Z,0.88
2023-10-29T22:01:40.940Z,1.15
2023-10-29T22:07:02.226Z,1.13
2023-10-29T22:12:23.382Z,0.85
2023-10-29T22:17:44.385Z,1.05
2023-10-29T22:23:05.289Z,1.30
2023-10-29T22:28:26.660Z,1.10
2023-10-29T22:33:47.506Z,1.30
2023-10-29T22:39:08.707Z,1.10
2023-10-29T22:44:29.881Z,1.20
2023-10-29T22:49:51.050Z,0.90
2023-10-29T22:55:12.163Z,1.27
2023-10-29T23:00:33.385Z,1.55
2023-10-29T23:05:54.550Z,0.98
2023-10-29T23:11:16.197Z,1.00
2023-10-29T23:16:37.583Z,1.02
2023-10-29T23:21:58.607Z,1.08
2023-10-29T23:27:19.649Z,1.20
2023-10-29T23:32:40.717Z,1.40
2023-10-29T23:38:02.249Z,1.05
2023-10-29T23:43:23.453Z,1.63
2023-10-29T23:48:44.559Z,1.58
2023-10-29T23:54:05.799Z,1.88
2023-10-29T23:59:26.644Z,1.52
